createdAt,value
2023-04-19T00:01:41.354Z,12.50
2023-04-19T00:04:27.240Z,12.40
2023-04-19T00:07:13.576Z,12.40
2023-04-19T00:09:59.233Z,12.50
2023-04-19T00:12:44.958Z,12.50
2023-04-19T00:15:30.914Z,12.40
2023-04-19T00:18:16.507Z,12.40
2023-04-19T00:21:03.009Z,12.50
2023-04-19T00:23:48.646Z,12.50
2023-04-19T00:26:34.339Z,12.50
2023-04-19T00:29:20.088Z,12.50
2023-04-19T00:32:06.150Z,12.40
2023-04-19T00:34:51.781Z,12.40
2023-04-19T00:37:37.335Z,12.40
2023-04-19T00:40:23.076Z,12.30
2023-04-19T00:43:08.824Z,12.30
2023-04-19T00:45:54.462Z,12.30
2023-04-19T00:48:40.579Z,12.30
2023-04-19T00:51:27.344Z,12.40
2023-04-19T00:54:13.845Z,12.40
2023-04-19T00:57:01.246Z,12.40
2023-04-19T00:59:47.615Z,12.40
2023-04-19T01:02:33.002Z,12.40
2023-04-19T01:05:18.527Z,12.40
2023-04-19T01:08:04.320Z,12.40
2023-04-19T01:10:49.825Z,12.40
2023-04-19T01:13:35.408Z,12.30
2023-04-19T01:16:21.457Z,12.30
2023-04-19T01:19:09.845Z,12.30
2023-04-19T01:21:56.519Z,12.20
2023-04-19T01:24:42.268Z,12.10
2023-04-19T01:27:28.080Z,12.20
2023-04-19T01:30:13.931Z,12.10
2023-04-19T01:32:59.553Z,12.10
2023-04-19T01:35:45.335Z,12.10
2023-04-19T01:38:31.070Z,12.10
2023-04-19T01:41:16.789Z,12.10
2023-04-19T01:44:02.466Z,12.10
2023-04-19T01:46:49.102Z,12.10
2023-04-19T01:49:34.751Z,12.00
2023-04-19T01:52:20.930Z,12.00
2023-04-19T01:55:07.320Z,12.00
2023-04-19T01:57:54.883Z,12.00
2023-04-19T02:00:40.845Z,12.00
2023-04-19T02:03:26.986Z,12.00
2023-04-19T02:06:13.562Z,11.90
2023-04-19T02:08:59.930Z,11.90
2023-04-19T02:11:45.607Z,11.80
2023-04-19T02:14:32.198Z,11.80
2023-04-19T02:17:17.524Z,11.90
2023-04-19T02:20:04.414Z,11.80
2023-04-19T02:22:50.325Z,11.80
2023-04-19T02:25:36.080Z,11.80
2023-04-19T02:28:22.026Z,11.70
2023-04-19T02:31:08.421Z,11.70
2023-04-19T02:33:54.293Z,11.80
2023-04-19T02:36:40.179Z,11.70
2023-04-19T02:39:25.660Z,11.80
2023-04-19T02:42:12.012Z,11.80
2023-04-19T02:44:57.695Z,11.80
2023-04-19T02:47:43.367Z,11.80
2023-04-19T02:50:29.631Z,11.80
2023-04-19T02:53:15.148Z,11.80
2023-04-19T02:56:01.841Z,11.80
2023-04-19T02:58:47.773Z,11.80
2023-04-19T03:01:33.611Z,11.80
2023-04-19T03:04:22.717Z,11.70
2023-04-19T03:07:09.011Z,11.70
2023-04-19T03:09:55.396Z,11.70
2023-04-19T03:12:41.326Z,11.70
2023-04-19T03:15:28.199Z,11.70
2023-04-19T03:18:13.785Z,11.70
2023-04-19T03:21:01.481Z,11.60
2023-04-19T03:23:52.320Z,11.60
2023-04-19T03:26:38.334Z,11.60
2023-04-19T03:29:23.891Z,11.60
2023-04-19T03:32:22.177Z,11.50
2023-04-19T03:35:08.648Z,11.50
2023-04-19T03:37:54.827Z,11.50
2023-04-19T03:40:40.363Z,11.40
2023-04-19T03:43:29.060Z,11.40
2023-04-19T03:46:14.832Z,11.40
2023-04-19T03:49:00.389Z,11.30
2023-04-19T03:51:47.209Z,11.30
2023-04-19T03:54:37.459Z,11.20
2023-04-19T03:57:27.465Z,11.20
2023-04-19T04:00:14.134Z,11.20
2023-04-19T04:02:59.980Z,11.10
2023-04-19T04:05:46.657Z,11.00
2023-04-19T04:08:32.618Z,11.00
2023-04-19T04:11:18.436Z,10.90
2023-04-19T04:14:07.267Z,10.90
2023-04-19T04:16:56.364Z,10.80
2023-04-19T04:19:41.986Z,10.70
2023-04-19T04:22:28.377Z,10.70
2023-04-19T04:25:15.926Z,10.60
2023-04-19T04:28:01.849Z,10.60
2023-04-19T04:30:47.498Z,10.60
2023-04-19T04:33:33.216Z,10.60
2023-04-19T04:36:20.644Z,10.60
2023-04-19T04:39:10.277Z,10.50
2023-04-19T04:41:57.743Z,10.60
2023-04-19T04:44:44.983Z,10.60
2023-04-19T04:47:32.456Z,10.70
2023-04-19T04:50:20.561Z,10.70
2023-04-19T04:53:08.268Z,10.70
2023-04-19T04:55:55.050Z,10.70
2023-04-19T04:58:40.672Z,10.70
2023-04-19T05:01:30.134Z,10.80
2023-04-19T05:04:16.861Z,11.10
2023-04-19T05:07:02.791Z,11.30
2023-04-19T05:09:48.442Z,11.70
2023-04-19T05:12:39.477Z,12.20
2023-04-19T05:15:25.045Z,12.60
2023-04-19T05:18:13.521Z,12.80
2023-04-19T05:21:00.960Z,13.00
2023-04-19T05:23:53.554Z,13.50
2023-04-19T05:26:39.578Z,13.90
2023-04-19T05:29:26.808Z,14.10
2023-04-19T05:32:14.107Z,14.00
2023-04-19T05:35:04.767Z,14.00
2023-04-19T05:37:50.380Z,14.10
2023-04-19T05:40:37.253Z,14.40
2023-04-19T05:43:22.998Z,14.70
2023-04-19T05:46:08.611Z,15.10
2023-04-19T05:48:54.140Z,15.50
2023-04-19T05:51:46.011Z,15.50
2023-04-19T05:54:45.597Z,15.30
2023-04-19T05:57:31.520Z,15.00
2023-04-19T06:00:17.757Z,14.70
2023-04-19T06:03:12.194Z,14.50
2023-04-19T06:05:57.712Z,14.30
2023-04-19T06:08:43.604Z,14.20
2023-04-19T06:11:38.925Z,14.30
2023-04-19T06:14:31.978Z,14.30
2023-04-19T06:17:23.469Z,14.50
2023-04-19T06:20:10.206Z,14.70
2023-04-19T06:22:55.817Z,15.00
2023-04-19T06:25:41.536Z,15.20
2023-04-19T06:28:27.280Z,15.50
2023-04-19T06:41:23.129Z,16.50
2023-04-19T06:44:15.276Z,17.00
2023-04-19T06:47:01.270Z,17.20
2023-04-19T06:49:47.295Z,17.40
2023-04-19T07:07:38.203Z,18.30
2023-04-19T07:10:24.218Z,18.50
2023-04-19T07:13:13.250Z,18.70
2023-04-19T07:15:58.878Z,18.80
2023-04-19T07:18:44.580Z,19.00
2023-04-19T07:56:49.461Z,20.40
2023-04-19T08:24:45.167Z,20.60
2023-04-19T08:27:30.928Z,20.80
2023-04-19T08:30:16.558Z,21.10
2023-04-19T08:33:03.179Z,21.10
2023-04-19T08:35:49.163Z,21.00
2023-04-19T08:38:34.847Z,20.60
2023-04-19T08:41:21.596Z,20.70
2023-04-19T08:44:08.447Z,20.80
2023-04-19T08:46:54.437Z,20.80
2023-04-19T08:49:42.624Z,21.10
2023-04-19T08:52:29.462Z,21.00
2023-04-19T08:55:15.413Z,21.30
2023-04-19T08:58:04.007Z,21.50
2023-04-19T09:00:51.593Z,21.30
2023-04-19T09:03:58.473Z,21.30
2023-04-19T09:06:48.950Z,21.30
2023-04-19T09:09:43.113Z,21.20
2023-04-19T09:12:37.922Z,21.20
2023-04-19T09:15:35.461Z,21.00
2023-04-19T09:18:21.071Z,20.90
2023-04-19T09:21:07.058Z,21.00
2023-04-19T09:23:52.773Z,20.80
2023-04-19T09:26:38.378Z,20.80
2023-04-19T09:29:24.179Z,20.90
2023-04-19T09:32:09.651Z,20.80
2023-04-19T09:34:56.416Z,20.60
2023-04-19T09:40:30.598Z,20.70
2023-04-19T10:16:01.731Z,21.10
2023-04-19T10:18:58.035Z,21.00
2023-04-19T10:36:58.545Z,21.10
2023-04-19T10:39:44.912Z,21.20
2023-04-19T10:42:49.159Z,21.20
2023-04-19T10:45:35.146Z,21.30
2023-04-19T10:48:27.417Z,21.60
2023-04-19T10:51:24.233Z,21.50
2023-04-19T10:54:10.395Z,21.30
2023-04-19T10:56:59.089Z,20.80
2023-04-19T10:59:44.778Z,20.70
2023-04-19T11:02:32.589Z,21.00
2023-04-19T11:05:20.298Z,21.00
2023-04-19T11:08:06.319Z,21.10
2023-04-19T11:10:53.330Z,21.20
2023-04-19T11:13:39.313Z,21.20
2023-04-19T11:16:34.344Z,21.10
2023-04-19T11:19:27.819Z,21.10
2023-04-19T11:22:13.704Z,21.10
2023-04-19T11:25:08.707Z,21.00
2023-04-19T11:27:54.368Z,21.00
2023-04-19T11:30:39.718Z,21.20
2023-04-19T11:33:25.902Z,21.20
2023-04-19T11:36:12.677Z,21.10
2023-04-19T11:38:58.818Z,21.20
2023-04-19T11:41:44.410Z,21.30
2023-04-19T11:44:30.923Z,21.20
2023-04-19T11:47:16.456Z,21.10
2023-04-19T11:50:20.930Z,21.20
2023-04-19T11:53:10.159Z,21.30
2023-04-19T11:55:57.765Z,21.30
2023-04-19T11:58:50.828Z,21.40
2023-04-19T12:01:36.506Z,21.30
2023-04-19T12:04:23.360Z,21.50
2023-04-19T12:07:10.543Z,21.70
2023-04-19T12:09:56.145Z,21.60
2023-04-19T12:12:42.036Z,21.60
2023-04-19T12:15:43.590Z,21.30
2023-04-19T12:18:43.227Z,21.20
2023-04-19T12:21:29.553Z,21.40
2023-04-19T12:24:16.072Z,21.60
2023-04-19T12:27:01.617Z,21.50
2023-04-19T12:29:50.818Z,21.40
2023-04-19T12:32:36.603Z,21.40
2023-04-19T12:35:25.963Z,21.60
2023-04-19T12:38:11.663Z,21.70
2023-04-19T12:40:57.138Z,21.50
2023-04-19T12:43:42.925Z,21.60
2023-04-19T12:46:28.597Z,21.80
2023-04-19T12:49:14.556Z,21.90
2023-04-19T12:52:02.870Z,21.90
2023-04-19T12:54:48.618Z,21.90
2023-04-19T12:57:34.293Z,21.90
2023-04-19T13:00:20.202Z,22.00
2023-04-19T13:03:06.118Z,22.00
2023-04-19T13:05:51.624Z,21.80
2023-04-19T13:08:44.872Z,21.70
2023-04-19T13:11:32.919Z,21.80
2023-04-19T13:14:18.581Z,21.60
2023-04-19T13:17:04.322Z,21.60
2023-04-19T13:19:50.129Z,21.60
2023-04-19T13:22:35.762Z,21.60
2023-04-19T13:25:21.486Z,21.70
2023-04-19T13:28:06.913Z,21.90
2023-04-19T13:30:52.575Z,21.80
2023-04-19T13:33:38.571Z,21.90
2023-04-19T13:36:25.178Z,21.90
2023-04-19T13:39:11.037Z,22.00
2023-04-19T13:41:56.767Z,22.10
2023-04-19T13:44:42.325Z,22.00
2023-04-19T13:47:27.987Z,22.20
2023-04-19T13:50:15.066Z,22.20
2023-04-19T13:53:00.855Z,22.10
2023-04-19T13:55:46.669Z,21.90
2023-04-19T13:58:32.287Z,22.10
2023-04-19T14:01:17.513Z,22.00
2023-04-19T14:04:03.734Z,21.90
2023-04-19T14:06:49.413Z,22.00
2023-04-19T14:09:35.321Z,22.10
2023-04-19T14:12:21.044Z,22.00
2023-04-19T14:15:06.988Z,22.00
2023-04-19T14:17:52.774Z,21.90
2023-04-19T14:20:38.530Z,21.90
2023-04-19T14:23:24.568Z,21.90
2023-04-19T14:26:10.193Z,21.70
2023-04-19T14:28:56.121Z,21.80
2023-04-19T14:31:41.859Z,21.80
2023-04-19T14:34:27.776Z,21.90
2023-04-19T14:37:13.468Z,22.00
2023-04-19T14:40:01.715Z,22.10
2023-04-19T14:42:47.603Z,22.20
2023-04-19T14:45:33.823Z,22.30
2023-04-19T14:48:21.565Z,22.30
2023-04-19T14:51:07.950Z,22.40
2023-04-19T14:53:53.735Z,22.40
2023-04-19T14:56:39.351Z,22.40
2023-04-19T14:59:24.944Z,22.20
2023-04-19T15:02:11.014Z,22.10
2023-04-19T15:04:56.931Z,21.90
2023-04-19T15:07:42.798Z,21.80
2023-04-19T15:10:28.291Z,21.70
2023-04-19T15:13:13.795Z,21.60
2023-04-19T15:16:01.838Z,21.60
2023-04-19T15:18:48.851Z,21.50
2023-04-19T15:21:34.604Z,21.40
2023-04-19T15:24:20.435Z,21.30
2023-04-19T15:27:05.736Z,21.20
2023-04-19T15:29:51.663Z,21.20
2023-04-19T15:32:38.851Z,21.10
2023-04-19T15:35:24.946Z,21.00
2023-04-19T15:38:10.641Z,21.10
2023-04-19T15:40:56.755Z,21.10
2023-04-19T15:43:42.465Z,21.00
2023-04-19T15:46:28.366Z,21.00
2023-04-19T15:49:14.062Z,21.00
2023-04-19T15:51:59.530Z,20.90
2023-04-19T15:54:45.159Z,20.80
2023-04-19T15:57:30.782Z,20.80
2023-04-19T16:00:17.065Z,20.80
2023-04-19T16:03:02.807Z,20.70
2023-04-19T16:05:51.627Z,20.70
2023-04-19T16:08:37.405Z,20.60
2023-04-19T16:11:23.317Z,20.60
2023-04-19T16:14:08.774Z,20.50
2023-04-19T16:16:54.588Z,20.40
2023-04-19T16:19:40.126Z,20.40
2023-04-19T16:22:25.928Z,20.40
2023-04-19T16:25:12.811Z,20.30
2023-04-19T16:27:58.697Z,20.30
2023-04-19T16:30:46.796Z,20.30
2023-04-19T16:33:32.313Z,20.30
2023-04-19T16:36:18.039Z,19.80
2023-04-19T16:39:03.857Z,20.30
2023-04-19T16:41:49.301Z,20.30
2023-04-19T16:44:34.823Z,20.20
2023-04-19T16:47:21.903Z,20.10
2023-04-19T16:50:07.843Z,20.10
2023-04-19T16:52:53.638Z,20.10
2023-04-19T16:55:39.359Z,20.00
2023-04-19T16:58:25.254Z,20.00
2023-04-19T17:01:10.731Z,20.00
2023-04-19T17:03:57.023Z,19.90
2023-04-19T17:06:42.658Z,19.90
2023-04-19T17:09:31.383Z,19.90
2023-04-19T17:12:16.979Z,19.80
2023-04-19T17:15:03.051Z,19.80
2023-04-19T17:17:48.922Z,19.80
2023-04-19T17:20:34.901Z,19.70
2023-04-19T17:23:21.341Z,19.70
2023-04-19T17:26:06.845Z,19.70
2023-04-19T17:28:52.690Z,19.60
2023-04-19T17:31:40.742Z,19.50
2023-04-19T17:34:26.630Z,19.50
2023-04-19T17:37:12.192Z,19.40
2023-04-19T17:39:57.832Z,19.30
2023-04-19T17:42:43.687Z,19.10
2023-04-19T17:45:29.532Z,19.10
2023-04-19T17:48:15.510Z,18.90
2023-04-19T17:51:01.065Z,18.90
2023-04-19T17:53:47.346Z,18.90
2023-04-19T17:56:32.999Z,18.80
2023-04-19T17:59:19.093Z,18.80
2023-04-19T18:02:05.166Z,18.70
2023-04-19T18:04:51.057Z,18.70
2023-04-19T18:07:36.848Z,18.70
2023-04-19T18:10:22.221Z,18.60
2023-04-19T18:13:07.949Z,18.50
2023-04-19T18:15:53.534Z,18.50
2023-04-19T18:18:39.161Z,18.30
2023-04-19T18:21:25.068Z,18.20
2023-04-19T18:24:10.667Z,18.10
2023-04-19T18:26:56.323Z,18.00
2023-04-19T18:29:41.930Z,18.00
2023-04-19T18:32:28.798Z,17.90
2023-04-19T18:35:15.058Z,17.80
2023-04-19T18:38:00.477Z,17.80
2023-04-19T18:40:47.063Z,17.80
2023-04-19T18:43:32.738Z,17.70
2023-04-19T18:46:18.781Z,17.60
2023-04-19T18:49:04.745Z,17.60
2023-04-19T18:51:51.124Z,17.60
2023-04-19T18:54:37.590Z,17.50
2023-04-19T18:57:26.726Z,17.50
2023-04-19T19:00:14.621Z,17.40
2023-04-19T19:03:02.013Z,17.40
2023-04-19T19:05:51.045Z,17.40
2023-04-19T19:08:39.774Z,17.30
2023-04-19T19:14:14.281Z,17.30
2023-04-19T19:17:00.445Z,17.30
2023-04-19T19:19:46.087Z,17.30
2023-04-19T19:22:31.649Z,17.20
2023-04-19T19:25:17.523Z,17.10
2023-04-19T19:28:08.241Z,17.10
2023-04-19T19:30:56.268Z,17.10
2023-04-19T19:33:42.067Z,16.90
2023-04-19T19:36:27.622Z,16.80
2023-04-19T19:39:13.475Z,16.60
2023-04-19T19:42:06.040Z,16.50
2023-04-19T19:44:55.437Z,16.40
2023-04-19T19:47:45.291Z,16.30
2023-04-19T19:50:57.744Z,16.20
2023-04-19T19:53:37.842Z,16.10
2023-04-19T19:56:24.503Z,16.00
2023-04-19T19:59:10.913Z,15.90
2023-04-19T20:01:57.302Z,15.90
2023-04-19T20:04:43.568Z,15.70
2023-04-19T20:07:58.292Z,15.70
2023-04-19T20:10:35.267Z,15.70
2023-04-19T20:13:20.740Z,15.60
2023-04-19T20:16:06.882Z,15.40
2023-04-19T20:18:54.511Z,15.40
2023-04-19T20:22:04.204Z,15.30
2023-04-19T20:25:17.821Z,15.30
2023-04-19T20:28:04.762Z,15.20
2023-04-19T20:30:50.749Z,15.10
2023-04-19T20:33:36.265Z,15.10
2023-04-19T20:36:23.366Z,15.10
2023-04-19T20:39:13.301Z,15.10
2023-04-19T20:41:59.022Z,15.10
2023-04-19T20:44:44.635Z,15.20
2023-04-19T20:47:32.156Z,15.10
2023-04-19T20:50:17.553Z,15.10
2023-04-19T20:53:03.688Z,15.10
2023-04-19T20:55:49.750Z,15.10
2023-04-19T20:58:35.464Z,15.10
2023-04-19T21:01:23.114Z,15.20
2023-04-19T21:04:10.073Z,15.20
2023-04-19T21:06:58.058Z,15.20
2023-04-19T21:09:45.882Z,15.10
2023-04-19T21:12:31.819Z,15.10
2023-04-19T21:15:17.519Z,15.00
2023-04-19T21:18:03.284Z,15.00
2023-04-19T21:20:48.818Z,15.00
2023-04-19T21:23:34.904Z,15.10
2023-04-19T21:26:20.402Z,15.00
2023-04-19T21:29:05.794Z,14.90
2023-04-19T21:31:53.758Z,14.90
2023-04-19T21:34:39.296Z,15.00
2023-04-19T21:37:24.929Z,15.10
2023-04-19T21:40:10.829Z,15.10
2023-04-19T21:42:56.620Z,15.10
2023-04-19T21:45:42.034Z,15.20
2023-04-19T21:48:27.885Z,15.20
2023-04-19T21:51:14.187Z,15.30
2023-04-19T21:53:59.685Z,15.30
2023-04-19T21:56:45.245Z,15.30
2023-04-19T21:59:31.134Z,15.20
2023-04-19T22:02:17.203Z,15.10
2023-04-19T22:05:03.405Z,15.00
2023-04-19T22:07:49.343Z,15.00
2023-04-19T22:10:34.744Z,15.00
2023-04-19T22:13:22.208Z,15.10
2023-04-19T22:16:08.352Z,15.00
2023-04-19T22:18:54.182Z,15.00
2023-04-19T22:21:39.756Z,15.10
2023-04-19T22:24:25.438Z,15.10
2023-04-19T22:27:11.154Z,15.10
2023-04-19T22:29:56.779Z,15.10
2023-04-19T22:32:42.914Z,15.00
2023-04-19T22:35:28.557Z,14.90
2023-04-19T22:38:14.228Z,14.90
2023-04-19T22:40:59.946Z,14.90
2023-04-19T22:43:45.770Z,14.90
2023-04-19T22:46:33.112Z,14.80
2023-04-19T22:49:22.096Z,14.80
2023-04-19T22:52:07.939Z,14.70
2023-04-19T22:54:53.793Z,14.70
2023-04-19T22:57:39.458Z,14.60
2023-04-19T23:00:25.986Z,14.50
2023-04-19T23:03:11.349Z,14.60
2023-04-19T23:05:57.028Z,14.50
2023-04-19T23:08:42.710Z,14.50
2023-04-19T23:11:29.977Z,14.50
2023-04-19T23:14:18.500Z,14.40
2023-04-19T23:17:04.220Z,14.50
2023-04-19T23:19:49.878Z,14.40
2023-04-19T23:22:35.254Z,14.40
2023-04-19T23:25:21.051Z,14.40
2023-04-19T23:28:06.691Z,14.30
2023-04-19T23:30:52.207Z,14.20
2023-04-19T23:33:38.069Z,14.10
2023-04-19T23:36:23.574Z,14.20
2023-04-19T23:39:09.245Z,14.20
2023-04-19T23:41:54.639Z,14.20
2023-04-19T23:44:42.171Z,14.30
2023-04-19T23:47:29.595Z,14.30
2023-04-19T23:50:15.451Z,14.20
2023-04-19T23:53:02.903Z,14.20
2023-04-19T23:55:48.465Z,14.10
2023-04-19T23:58:34.078Z,14.10
